Time;durP1;ratioP1;P1;durP2;ratioP2;P2;SDS_P1;SDS_P2;PMS_P1;PMS_P2;Temp;Humidity;BMP_temperature;BMP_pressure;BME280_temperature;BME280_humidity;BME280_pressure;Samples;Min_cycle;Max_cycle;Signal;HPM_P1;HPM_P2
2021/01/02 10:11:18;;;;;;;45.90;23.83;;;0.70;99.90;;;;;;4780972;27;9180488;-74
2021/01/02 10:17:53;;;;;;;43.25;24.10;;;0.80;99.90;;;;;;5078893;28;20536;-73
2021/01/02 10:27:37;;;;;;;39.05;21.42;;;1.00;99.90;;;;;;5016267;28;20054;-72
2021/01/02 10:31:19;;;;;;;41.58;23.25;;;1.00;99.90;;;;;;5012062;28;20548;-74
2021/01/02 10:34:14;;;;;;;37.40;20.83;;;1.00;99.90;;;;;;4999395;28;20571;-72
2021/01/02 10:37:13;;;;;;;35.63;21.35;;;1.00;99.90;;;;;;4967705;28;20899;-73
2021/01/02 10:40:17;;;;;;;35.17;20.52;;;1.00;99.90;;;;;;4999968;28;20140;-74
2021/01/02 10:43:36;;;;;;;36.83;21.17;;;0.90;99.90;;;;;;4996084;28;20540;-74
2021/01/02 10:46:45;;;;;;;38.97;21.13;;;1.00;99.90;;;;;;5044650;28;20053;-73
2021/01/02 10:49:28;;;;;;;34.70;21.02;;;1.10;99.90;;;;;;5030487;28;20040;-73
2021/01/02 10:52:22;;;;;;;35.05;19.73;;;1.10;99.90;;;;;;5040706;28;20059;-75
2021/01/02 10:55:19;;;;;;;31.58;19.08;;;1.10;99.90;;;;;;5030775;28;20137;-74
2021/01/02 10:58:23;;;;;;;34.90;19.05;;;1.20;99.90;;;;;;5044636;28;20044;-74
2021/01/02 11:07:10;;;;;;;32.30;18.73;;;1.60;99.90;;;;;;4939150;29;20009;-74
2021/01/02 11:10:10;;;;;;;29.77;17.35;;;1.70;99.90;;;;;;4923689;28;20059;-73
2021/01/02 11:13:01;;;;;;;28.13;16.55;;;1.70;99.90;;;;;;4936314;28;20062;-74
2021/01/02 11:15:32;;;;;;;28.17;17.58;;;1.80;99.90;;;;;;4939951;28;20047;-73
2021/01/02 11:17:59;;;;;;;26.08;16.95;;;1.80;99.90;;;;;;4923072;28;20058;-74
2021/01/02 11:20:25;;;;;;;26.83;17.00;;;1.90;99.90;;;;;;4920405;29;20056;-74
2021/01/02 11:22:51;;;;;;;25.48;16.08;;;1.90;99.90;;;;;;4911358;29;20574;-73
2021/01/02 11:25:18;;;;;;;23.58;14.52;;;2.10;99.90;;;;;;4927244;29;20048;-75
2021/01/02 11:27:46;;;;;;;23.90;14.93;;;2.10;99.90;;;;;;4918578;29;20519;-73
2021/01/02 11:30:13;;;;;;;23.95;15.00;;;2.20;99.90;;;;;;4926479;29;20685;-73
2021/01/02 11:32:41;;;;;;;24.95;16.58;;;2.20;99.90;;;;;;4926582;29;20052;-74
2021/01/02 11:35:08;;;;;;;22.30;14.55;;;2.10;99.90;;;;;;4925070;29;20454;-73
2021/01/02 11:37:35;;;;;;;21.10;14.05;;;2.10;99.90;;;;;;4910532;29;20738;-73
2021/01/02 11:40:14;;;;;;;23.10;13.60;;;2.10;99.90;;;;;;4934943;28;20066;-74
2021/01/02 11:42:40;;;;;;;21.35;14.40;;;2.10;99.90;;;;;;4969519;28;20125;-73
2021/01/02 11:45:10;;;;;;;19.45;12.75;;;2.10;99.90;;;;;;5047186;28;20053;-74
2021/01/02 11:47:37;;;;;;;19.98;13.77;;;2.00;99.90;;;;;;5046122;28;20076;-73
2021/01/02 11:50:04;;;;;;;20.80;13.52;;;2.00;99.90;;;;;;5047155;28;20126;-73
2021/01/02 11:52:30;;;;;;;20.25;13.25;;;2.00;99.90;;;;;;5032750;28;20065;-73
2021/01/02 11:54:59;;;;;;;22.90;14.65;;;2.00;99.90;;;;;;5029231;28;20049;-73
2021/01/02 11:57:26;;;;;;;22.25;14.18;;;2.00;99.90;;;;;;5045943;28;20498;-74
2021/01/02 11:59:52;;;;;;;20.80;13.57;;;2.10;99.90;;;;;;5047103;28;20056;-73
2021/01/02 12:02:19;;;;;;;22.70;13.95;;;2.10;99.90;;;;;;5027822;28;20144;-74
2021/01/02 12:04:46;;;;;;;21.95;14.55;;;2.20;99.90;;;;;;5046990;28;20049;-73
2021/01/02 12:07:12;;;;;;;23.92;14.52;;;2.20;99.90;;;;;;5046954;28;20436;-73
2021/01/02 12:09:39;;;;;;;23.70;14.90;;;2.20;99.90;;;;;;5027901;28;20065;-76
2021/01/02 12:12:06;;;;;;;24.42;15.40;;;2.20;99.90;;;;;;5029266;28;20495;-73
2021/01/02 12:14:34;;;;;;;21.27;14.10;;;2.20;99.90;;;;;;5015087;28;20053;-73
2021/01/02 12:17:07;;;;;;;23.70;14.63;;;2.10;99.90;;;;;;5026868;28;20057;-74
2021/01/02 12:19:34;;;;;;;23.27;15.00;;;2.10;99.90;;;;;;5046535;28;20080;-73
2021/01/02 12:22:06;;;;;;;24.95;15.50;;;2.00;99.90;;;;;;5028024;28;20079;-73
2021/01/02 12:24:33;;;;;;;23.55;15.43;;;1.80;99.90;;;;;;5018883;28;20083;-73
2021/01/02 12:27:04;;;;;;;25.77;15.23;;;1.90;99.90;;;;;;5046171;28;20044;-73
2021/01/02 12:29:32;;;;;;;24.27;14.95;;;1.90;99.90;;;;;;5027970;28;20118;-74
2021/01/02 12:32:05;;;;;;;24.95;15.57;;;1.90;99.90;;;;;;5044657;28;20132;-72
2021/01/02 12:34:35;;;;;;;26.40;16.50;;;1.90;99.90;;;;;;5045335;28;20095;-73
2021/01/02 12:37:10;;;;;;;28.25;17.00;;;1.90;99.90;;;;;;5046303;28;20137;-72
2021/01/02 12:39:39;;;;;;;27.98;15.68;;;1.90;99.90;;;;;;5045331;28;20045;-73
2021/01/02 12:42:05;;;;;;;25.75;16.05;;;1.90;99.90;;;;;;5046091;28;20089;-73
2021/01/02 12:44:32;;;;;;;24.40;15.73;;;1.90;99.90;;;;;;5045185;28;20606;-73
2021/01/02 12:47:02;;;;;;;25.05;15.98;;;1.90;99.90;;;;;;5027527;28;20041;-74
2021/01/02 12:49:32;;;;;;;27.02;16.55;;;1.90;99.90;;;;;;5045927;28;20045;-73
2021/01/02 12:52:01;;;;;;;27.25;16.55;;;1.70;99.90;;;;;;5046496;28;20164;-73
2021/01/02 12:54:28;;;;;;;27.45;16.55;;;1.70;99.90;;;;;;5026340;28;20407;-74
2021/01/02 12:56:55;;;;;;;27.80;17.25;;;1.70;99.90;;;;;;5046028;28;20044;-73
2021/01/02 12:59:32;;;;;;;26.13;16.08;;;1.70;99.90;;;;;;5045169;28;20111;-73
2021/01/02 13:02:00;;;;;;;30.10;18.02;;;1.60;99.90;;;;;;5027165;28;20060;-73
2021/01/02 13:04:27;;;;;;;29.13;18.63;;;1.50;99.90;;;;;;5026948;28;20099;-73
2021/01/02 13:06:56;;;;;;;29.55;18.80;;;1.40;99.90;;;;;;5045360;28;20053;-73
2021/01/02 13:09:23;;;;;;;35.60;19.95;;;1.40;99.90;;;;;;5044096;28;20115;-74
2021/01/02 13:11:54;;;;;;;33.53;21.48;;;1.30;99.90;;;;;;5045784;28;20056;-72
2021/01/02 13:14:23;;;;;;;33.13;21.55;;;1.30;99.90;;;;;;5027301;28;20049;-74
2021/01/02 13:16:53;;;;;;;36.47;20.95;;;1.30;99.90;;;;;;5044675;28;20053;-73
2021/01/02 13:19:21;;;;;;;36.72;21.77;;;1.20;99.90;;;;;;5027052;28;20045;-74
2021/01/02 13:22:00;;;;;;;34.63;21.42;;;1.10;99.90;;;;;;5045814;28;20403;-73
2021/01/02 13:24:30;;;;;;;34.75;21.25;;;1.10;99.90;;;;;;5037404;28;20089;-74
2021/01/02 13:26:59;;;;;;;35.13;20.88;;;1.10;99.90;;;;;;5045235;28;20127;-73
2021/01/02 13:29:29;;;;;;;37.65;22.50;;;1.10;99.90;;;;;;5026660;28;20049;-73
2021/01/02 13:31:57;;;;;;;42.88;24.77;;;1.10;99.90;;;;;;5043767;28;20408;-73
2021/01/02 13:34:24;;;;;;;39.45;23.38;;;1.10;99.90;;;;;;5026464;28;20044;-73
2021/01/02 13:36:52;;;;;;;39.53;23.48;;;1.00;99.90;;;;;;5026815;28;20041;-74
2021/01/02 13:39:23;;;;;;;36.45;23.02;;;0.90;99.90;;;;;;5026086;28;20056;-74
2021/01/02 13:42:08;;;;;;;37.38;22.35;;;0.90;99.90;;;;;;5044715;28;20120;-74
2021/01/02 13:44:36;;;;;;;37.95;23.50;;;0.90;99.90;;;;;;5025595;28;20774;-73
2021/01/02 13:47:06;;;;;;;44.83;24.17;;;0.90;99.90;;;;;;5026164;28;20041;-74
2021/01/02 13:49:32;;;;;;;34.83;21.42;;;0.90;99.90;;;;;;5044274;28;20052;-73
2021/01/02 13:51:59;;;;;;;37.05;22.63;;;0.80;99.90;;;;;;5037596;28;20503;-74
2021/01/02 13:54:25;;;;;;;39.63;22.20;;;0.70;99.90;;;;;;5043240;28;20065;-73
2021/01/02 13:56:52;;;;;;;39.30;23.52;;;0.70;99.90;;;;;;5026620;28;20112;-73
2021/01/02 13:59:26;;;;;;;42.08;23.35;;;0.70;99.90;;;;;;5025831;28;20067;-73
2021/01/02 14:01:54;;;;;;;41.20;23.20;;;0.70;99.90;;;;;;5039267;28;20678;-73
2021/01/02 14:04:21;;;;;;;36.70;21.08;;;0.60;99.90;;;;;;5038958;28;20106;-75
2021/01/02 14:06:54;;;;;;;40.90;22.35;;;0.60;99.90;;;;;;5024984;28;20049;-75
2021/01/02 14:09:23;;;;;;;37.80;22.10;;;0.60;99.90;;;;;;5028115;28;20067;-74
2021/01/02 14:11:53;;;;;;;34.78;20.52;;;0.60;99.90;;;;;;5020829;28;20045;-74
2021/01/02 14:14:20;;;;;;;37.55;20.83;;;0.60;99.90;;;;;;5038129;28;20148;-73
2021/01/02 14:16:52;;;;;;;33.58;20.15;;;0.60;99.90;;;;;;5039806;28;20159;-74
2021/01/02 14:19:19;;;;;;;35.10;20.90;;;0.60;99.90;;;;;;5042732;28;20048;-72
2021/01/02 14:21:48;;;;;;;63.78;31.60;;;0.70;99.90;;;;;;5043890;28;20060;-74
2021/01/02 14:24:15;;;;;;;37.05;20.67;;;0.70;99.90;;;;;;5043510;28;20171;-73
2021/01/02 14:26:41;;;;;;;32.67;19.70;;;0.70;99.90;;;;;;5043727;28;20047;-74
2021/01/02 14:29:09;;;;;;;30.77;19.33;;;0.70;99.90;;;;;;5043378;28;20599;-74
2021/01/02 14:31:42;;;;;;;31.08;19.52;;;0.70;99.90;;;;;;5042917;28;20748;-73
2021/01/02 14:34:15;;;;;;;28.50;17.27;;;0.80;99.90;;;;;;5021651;28;20057;-74
2021/01/02 14:36:50;;;;;;;29.35;17.70;;;0.70;99.90;;;;;;5012433;28;20637;-73
2021/01/02 14:39:16;;;;;;;25.90;16.10;;;0.80;99.90;;;;;;5030597;28;20126;-73
2021/01/02 14:41:43;;;;;;;28.48;17.13;;;0.70;99.90;;;;;;5044448;28;20052;-73
2021/01/02 14:44:10;;;;;;;27.65;16.52;;;0.70;99.90;;;;;;5024992;28;20099;-74
2021/01/02 14:46:37;;;;;;;25.35;15.85;;;0.60;99.90;;;;;;5025234;28;20049;-73
2021/01/02 14:49:07;;;;;;;26.17;14.73;;;0.60;99.90;;;;;;5025500;28;20049;-73
2021/01/02 14:51:49;;;;;;;23.42;14.68;;;0.60;99.90;;;;;;5043959;28;20049;-73
2021/01/02 14:54:18;;;;;;;24.90;14.85;;;0.60;99.90;;;;;;5025495;28;20147;-74
2021/01/02 14:56:53;;;;;;;22.52;14.05;;;0.50;99.90;;;;;;5046247;28;20415;-74
2021/01/02 14:59:20;;;;;;;23.13;14.82;;;0.50;99.90;;;;;;5028810;28;20154;-74
2021/01/02 15:01:48;;;;;;;22.05;13.88;;;0.50;99.90;;;;;;5044534;28;20060;-74
2021/01/02 15:04:14;;;;;;;22.80;13.13;;;0.50;99.90;;;;;;5029577;28;20067;-73
2021/01/02 15:06:47;;;;;;;20.23;12.73;;;0.50;99.90;;;;;;5029830;28;20068;-74
2021/01/02 15:09:14;;;;;;;22.77;13.57;;;0.40;99.90;;;;;;5046837;28;20090;-74
2021/01/02 15:11:40;;;;;;;20.00;12.35;;;0.40;99.90;;;;;;5043227;28;20140;-75
2021/01/02 15:14:07;;;;;;;20.05;12.57;;;0.40;99.90;;;;;;5046903;28;20123;-71
2021/01/02 15:16:33;;;;;;;18.48;12.02;;;0.40;99.90;;;;;;5025245;28;20049;-72
2021/01/02 15:19:01;;;;;;;18.88;11.25;;;0.40;99.90;;;;;;5046066;28;20068;-74
2021/01/02 15:21:28;;;;;;;17.73;10.85;;;0.40;99.90;;;;;;5047736;28;20045;-72
2021/01/02 15:23:54;;;;;;;17.15;10.80;;;0.40;99.90;;;;;;5036395;28;20491;-73
2021/01/02 15:26:25;;;;;;;15.88;9.27;;;0.40;99.90;;;;;;5014038;28;20045;-72
2021/01/02 15:28:51;;;;;;;14.60;9.23;;;0.40;99.90;;;;;;5024106;28;20504;-74
2021/01/02 15:31:28;;;;;;;18.85;11.15;;;0.30;99.90;;;;;;5032117;28;20136;-74
2021/01/02 15:33:55;;;;;;;16.80;11.48;;;0.30;99.90;;;;;;5033776;28;20045;-74
2021/01/02 15:36:28;;;;;;;18.90;11.80;;;0.30;99.90;;;;;;5025245;28;20057;-74
2021/01/02 15:38:57;;;;;;;20.83;13.10;;;0.30;99.90;;;;;;5024186;28;20054;-74
2021/01/02 15:41:32;;;;;;;21.35;13.07;;;0.30;99.90;;;;;;5026620;28;20068;-74
2021/01/02 15:43:59;;;;;;;19.60;12.20;;;0.30;99.90;;;;;;5027729;28;20081;-73
2021/01/02 15:46:34;;;;;;;20.13;12.70;;;0.30;99.90;;;;;;5028037;28;20056;-73
2021/01/02 15:49:01;;;;;;;21.35;13.10;;;0.30;99.90;;;;;;5046330;28;20049;-73
2021/01/02 15:51:38;;;;;;;20.20;12.85;;;0.30;99.90;;;;;;5028044;28;20057;-74
2021/01/02 15:54:06;;;;;;;22.27;13.20;;;0.30;99.90;;;;;;5027567;28;20110;-73
2021/01/02 15:56:33;;;;;;;19.20;12.52;;;0.30;99.90;;;;;;5028240;28;20041;-73
2021/01/02 15:58:59;;;;;;;18.48;12.57;;;0.30;99.90;;;;;;5028682;28;20064;-73
2021/01/02 16:01:26;;;;;;;20.70;12.50;;;0.30;99.90;;;;;;5027765;28;20106;-74
2021/01/02 16:14:17;;;;;;;25.02;14.20;;;0.30;99.90;;;;;;4909624;29;20067;-73
2021/01/02 16:16:45;;;;;;;22.30;14.20;;;0.30;99.90;;;;;;4918363;29;20047;-73
2021/01/02 16:19:13;;;;;;;24.05;14.88;;;0.30;99.90;;;;;;4902626;29;20150;-73
2021/01/02 16:21:43;;;;;;;18.98;13.02;;;0.30;99.90;;;;;;4906797;29;20123;-74
2021/01/02 16:24:10;;;;;;;21.58;12.68;;;0.30;99.90;;;;;;4909538;29;20056;-74
2021/01/02 16:26:39;;;;;;;20.88;14.02;;;0.40;99.90;;;;;;4905777;29;20044;-72
2021/01/02 16:29:07;;;;;;;23.67;15.13;;;0.30;99.90;;;;;;4904801;29;20052;-72
2021/01/02 16:31:53;;;;;;;22.33;14.68;;;0.40;99.90;;;;;;4893623;29;20048;-72
2021/01/02 16:34:29;;;;;;;25.10;15.98;;;0.40;99.90;;;;;;4907930;29;20051;-72
2021/01/02 16:37:14;;;;;;;21.67;14.02;;;0.40;99.90;;;;;;4887905;29;20073;-73
2021/01/02 16:39:44;;;;;;;25.17;15.60;;;0.30;99.90;;;;;;4923578;29;20047;-73
2021/01/02 16:42:12;;;;;;;24.38;15.02;;;0.30;99.90;;;;;;4934451;29;20091;-74
2021/01/02 16:44:40;;;;;;;25.88;15.23;;;0.30;99.90;;;;;;4976988;28;20156;-74
2021/01/02 16:47:10;;;;;;;24.02;16.30;;;0.30;99.90;;;;;;5004792;28;20046;-74
2021/01/02 16:49:37;;;;;;;24.20;15.20;;;0.40;99.90;;;;;;5025774;28;20089;-74
2021/01/02 16:52:06;;;;;;;27.05;16.23;;;0.40;99.90;;;;;;5028565;28;20384;-72
2021/01/02 16:54:33;;;;;;;27.85;17.20;;;0.40;99.90;;;;;;5025419;28;20076;-74
2021/01/02 16:56:59;;;;;;;22.55;15.43;;;0.30;99.90;;;;;;5026595;28;20045;-72
2021/01/02 16:59:27;;;;;;;24.60;15.43;;;0.40;99.90;;;;;;5024494;28;20045;-74
2021/01/02 17:01:53;;;;;;;25.02;15.85;;;0.30;99.90;;;;;;5027860;28;20065;-73
2021/01/02 17:04:20;;;;;;;25.88;16.70;;;0.40;99.90;;;;;;5021716;28;20440;-74
2021/01/02 17:06:46;;;;;;;27.40;15.65;;;0.40;99.90;;;;;;5028561;28;20049;-74
2021/01/02 17:09:14;;;;;;;24.77;15.75;;;0.30;99.90;;;;;;5033910;28;20052;-74
2021/01/02 17:11:44;;;;;;;26.15;16.35;;;0.30;99.90;;;;;;5025069;28;20067;-74
2021/01/02 17:14:13;;;;;;;23.63;15.88;;;0.30;99.90;;;;;;5025776;28;20050;-73
2021/01/02 17:16:44;;;;;;;27.15;16.45;;;0.30;99.90;;;;;;5024573;28;20214;-74
2021/01/02 17:19:17;;;;;;;25.88;16.00;;;0.30;99.90;;;;;;5031367;28;20145;-73
2021/01/02 17:21:51;;;;;;;27.27;16.95;;;0.30;99.90;;;;;;5021163;28;20511;-74
2021/01/02 17:24:19;;;;;;;27.23;17.38;;;0.30;99.90;;;;;;5031733;28;20061;-73
2021/01/02 17:26:47;;;;;;;25.17;16.20;;;0.30;99.90;;;;;;5025295;28;20041;-74
2021/01/02 17:29:17;;;;;;;26.52;16.42;;;0.30;99.90;;;;;;5023343;28;20054;-73
2021/01/02 17:31:47;;;;;;;28.20;17.20;;;0.30;99.90;;;;;;4671905;28;10001078;-75
2021/01/02 17:34:19;;;;;;;30.50;18.13;;;0.30;99.90;;;;;;5026956;28;20068;-74
2021/01/02 17:36:49;;;;;;;29.08;17.80;;;0.30;99.90;;;;;;5031975;28;20049;-73
2021/01/02 17:39:18;;;;;;;29.67;16.93;;;0.30;99.90;;;;;;5027838;28;20041;-74
2021/01/02 17:41:44;;;;;;;26.88;17.52;;;0.30;99.90;;;;;;5026439;28;20518;-74
2021/01/02 17:44:16;;;;;;;78.38;34.38;;;0.30;99.90;;;;;;5025598;28;20107;-74
2021/01/02 17:46:44;;;;;;;48.15;22.48;;;0.30;99.90;;;;;;5021068;28;20045;-74
2021/01/02 17:49:14;;;;;;;37.47;20.60;;;0.30;99.90;;;;;;5020827;28;20132;-74
2021/01/02 17:51:43;;;;;;;26.88;18.00;;;0.30;99.90;;;;;;5024593;28;20064;-73
2021/01/02 17:54:10;;;;;;;27.67;17.67;;;0.30;99.90;;;;;;5021472;28;20042;-73
2021/01/02 17:56:40;;;;;;;27.40;16.88;;;0.30;99.90;;;;;;5023728;28;20056;-73
2021/01/02 17:59:08;;;;;;;26.02;15.95;;;0.30;99.90;;;;;;5022986;28;20190;-74
2021/01/02 18:01:34;;;;;;;25.23;16.77;;;0.30;99.90;;;;;;5024637;28;20053;-74
2021/01/02 18:04:04;;;;;;;27.42;17.15;;;0.20;99.90;;;;;;5022624;28;20128;-74
2021/01/02 18:06:32;;;;;;;27.40;17.40;;;0.30;99.90;;;;;;5020189;28;20496;-74
2021/01/02 18:09:00;;;;;;;25.98;17.90;;;0.30;99.90;;;;;;5010985;28;20046;-74
2021/01/02 18:11:35;;;;;;;24.08;17.15;;;0.20;99.90;;;;;;5023565;28;20076;-74
2021/01/02 18:14:05;;;;;;;22.63;15.35;;;0.20;99.90;;;;;;5022958;28;20069;-74
2021/01/02 18:16:32;;;;;;;26.67;16.98;;;0.20;99.90;;;;;;5014621;28;20127;-73
2021/01/02 18:18:58;;;;;;;25.48;16.75;;;0.20;99.90;;;;;;5017124;28;20053;-74
2021/01/02 18:21:26;;;;;;;26.48;17.05;;;0.20;99.90;;;;;;5021652;28;20114;-73
2021/01/02 18:23:53;;;;;;;27.35;17.90;;;0.20;99.90;;;;;;5034926;28;20049;-74
2021/01/02 18:26:23;;;;;;;24.95;16.95;;;0.20;99.90;;;;;;5028025;28;20054;-74
2021/01/02 18:28:50;;;;;;;26.38;17.33;;;0.20;99.90;;;;;;5025117;28;20110;-74
2021/01/02 18:31:21;;;;;;;26.17;17.00;;;0.20;99.90;;;;;;5035115;28;20052;-74
2021/01/02 18:33:49;;;;;;;26.98;18.73;;;0.20;99.90;;;;;;5035965;28;20052;-75
2021/01/02 18:36:29;;;;;;;25.83;17.17;;;0.20;99.90;;;;;;5042507;28;20403;-74
2021/01/02 18:42:25;;;;;;;26.88;16.80;;;0.20;99.90;;;;;;5018694;28;20096;-75
2021/01/02 18:45:10;;;;;;;27.27;17.50;;;0.20;99.90;;;;;;5040824;28;20065;-74
2021/01/02 18:47:37;;;;;;;28.02;17.40;;;0.20;99.90;;;;;;5022092;28;20040;-74
2021/01/02 18:50:05;;;;;;;26.38;18.05;;;0.20;99.90;;;;;;5032111;28;20034;-73
2021/01/02 18:52:36;;;;;;;26.35;17.92;;;0.20;99.90;;;;;;5026629;28;20527;-74
2021/01/02 18:55:05;;;;;;;26.15;16.85;;;0.20;99.90;;;;;;5031891;28;20114;-74
2021/01/02 18:57:33;;;;;;;26.35;18.10;;;0.20;99.90;;;;;;5026488;28;20721;-72
2021/01/02 19:00:12;;;;;;;30.00;19.13;;;0.20;99.90;;;;;;5029802;28;20053;-73
2021/01/02 19:02:38;;;;;;;27.40;18.27;;;0.20;99.90;;;;;;5011300;28;20057;-73
2021/01/02 19:05:07;;;;;;;29.13;18.30;;;0.20;99.90;;;;;;5015479;28;20061;-74
2021/01/02 19:07:33;;;;;;;26.73;18.05;;;0.20;99.90;;;;;;5017693;28;20472;-74
2021/01/02 19:10:00;;;;;;;30.67;18.67;;;0.20;99.90;;;;;;5037666;28;20201;-74
2021/01/02 19:12:27;;;;;;;33.67;21.42;;;0.20;99.90;;;;;;5045561;28;20134;-75
2021/01/02 19:14:53;;;;;;;64.63;31.40;;;0.20;99.90;;;;;;5030533;28;20467;-74
2021/01/02 19:17:21;;;;;;;38.80;22.55;;;0.20;99.90;;;;;;5051800;28;20146;-74
2021/01/02 19:19:49;;;;;;;51.10;26.95;;;0.20;99.90;;;;;;5050612;28;20076;-75
2021/01/02 19:22:33;;;;;;;34.13;21.48;;;0.20;99.90;;;;;;5045281;28;20402;-74
2021/01/02 19:25:00;;;;;;;33.08;20.90;;;0.20;99.90;;;;;;5022524;28;20075;-74
2021/01/02 19:27:32;;;;;;;35.78;21.20;;;0.20;99.90;;;;;;5038796;28;20075;-74
2021/01/02 19:29:58;;;;;;;33.30;20.27;;;0.20;99.90;;;;;;5048553;28;20493;-75
2021/01/02 19:32:27;;;;;;;31.17;18.98;;;0.20;99.90;;;;;;5029831;28;20068;-75
2021/01/02 19:34:54;;;;;;;31.77;19.63;;;0.20;99.90;;;;;;5030172;28;20056;-73
2021/01/02 19:37:21;;;;;;;34.42;20.58;;;0.20;99.90;;;;;;5030203;28;20041;-75
2021/01/02 19:39:50;;;;;;;31.35;20.20;;;0.20;99.90;;;;;;5047913;28;20049;-75
2021/01/02 19:42:20;;;;;;;32.90;21.02;;;0.20;99.90;;;;;;5029068;28;20122;-75
2021/01/02 19:45:07;;;;;;;33.80;21.58;;;0.20;99.90;;;;;;5024976;28;20073;-74
2021/01/02 19:47:35;;;;;;;35.90;21.35;;;0.20;99.90;;;;;;5030178;28;20045;-75
2021/01/02 19:50:10;;;;;;;36.97;22.23;;;0.20;99.90;;;;;;5047179;28;20459;-74
2021/01/02 19:52:37;;;;;;;35.63;21.83;;;0.20;99.90;;;;;;5029995;28;20198;-74
2021/01/02 19:55:05;;;;;;;32.80;20.60;;;0.30;99.90;;;;;;5043984;28;20051;-75
2021/01/02 19:57:33;;;;;;;36.45;21.95;;;0.30;99.90;;;;;;5047528;28;20037;-74
2021/01/02 19:59:59;;;;;;;44.95;24.45;;;0.20;99.90;;;;;;5029620;28;20507;-75
2021/01/02 20:02:28;;;;;;;36.05;21.98;;;0.30;99.90;;;;;;5027471;28;20045;-74
2021/01/02 20:04:55;;;;;;;38.78;21.92;;;0.20;99.90;;;;;;5030324;28;20116;-74
2021/01/02 20:07:22;;;;;;;36.45;22.40;;;0.20;99.90;;;;;;5015360;28;20049;-75
2021/01/02 20:09:49;;;;;;;33.90;22.13;;;0.30;99.90;;;;;;5032890;28;20041;-74
2021/01/02 20:12:17;;;;;;;38.85;22.58;;;0.30;99.90;;;;;;5046711;28;20063;-75
2021/01/02 20:14:46;;;;;;;36.95;21.75;;;0.20;99.90;;;;;;5030051;28;20063;-74
2021/01/02 20:17:13;;;;;;;39.08;23.67;;;0.20;99.90;;;;;;5031843;28;20090;-74
2021/01/02 20:19:40;;;;;;;38.35;23.45;;;0.20;99.90;;;;;;5046725;28;20053;-74
2021/01/02 20:22:07;;;;;;;36.92;22.77;;;0.20;99.90;;;;;;5027154;28;20045;-74
2021/01/02 20:24:36;;;;;;;40.30;24.10;;;0.20;99.90;;;;;;5024141;28;20053;-74
2021/01/02 20:27:11;;;;;;;39.55;23.45;;;0.30;99.90;;;;;;5028855;28;20045;-74
2021/01/02 20:29:38;;;;;;;39.30;24.25;;;0.20;99.90;;;;;;5028962;28;20044;-74
2021/01/02 20:32:12;;;;;;;39.28;24.55;;;0.30;99.90;;;;;;5027860;28;20040;-74
2021/01/02 20:34:41;;;;;;;38.78;23.40;;;0.30;99.90;;;;;;5046143;28;20873;-74
2021/01/02 20:37:11;;;;;;;39.78;23.63;;;0.30;99.90;;;;;;5046587;28;20484;-74
2021/01/02 20:39:38;;;;;;;41.25;24.13;;;0.30;99.90;;;;;;5028182;28;20041;-74
2021/01/02 20:42:12;;;;;;;42.05;25.58;;;0.20;99.90;;;;;;5028548;28;20041;-74
2021/01/02 20:44:42;;;;;;;39.67;24.33;;;0.20;99.90;;;;;;5028540;28;20139;-75
2021/01/02 20:47:09;;;;;;;40.42;24.52;;;0.20;99.90;;;;;;5042480;28;20135;-73
2021/01/02 20:49:37;;;;;;;39.88;24.30;;;0.20;99.90;;;;;;5046055;28;20041;-74
2021/01/02 20:52:06;;;;;;;35.10;22.80;;;0.20;99.90;;;;;;5044290;28;20045;-73
2021/01/02 20:54:33;;;;;;;34.45;21.08;;;0.20;99.90;;;;;;5044229;28;20052;-73
2021/01/02 20:56:59;;;;;;;33.20;21.25;;;0.10;99.90;;;;;;5046011;28;20426;-74
2021/01/02 20:59:31;;;;;;;31.83;19.25;;;0.10;99.90;;;;;;5038866;28;20045;-74
2021/01/02 21:02:04;;;;;;;32.08;20.08;;;0.20;99.90;;;;;;5046222;28;20080;-74
2021/01/02 21:04:41;;;;;;;34.65;20.67;;;0.10;99.90;;;;;;5045466;28;20067;-75
2021/01/02 21:07:09;;;;;;;34.47;21.77;;;0.10;99.90;;;;;;5028934;28;20135;-74
2021/01/02 21:09:40;;;;;;;39.33;22.80;;;0.10;99.90;;;;;;5026920;28;20406;-74
2021/01/02 21:12:09;;;;;;;37.58;21.58;;;0.10;99.90;;;;;;5036400;28;20072;-74
2021/01/02 21:14:39;;;;;;;35.78;21.83;;;0.00;99.90;;;;;;5043941;28;20049;-74
2021/01/02 21:17:08;;;;;;;38.72;23.42;;;0.10;99.90;;;;;;5045228;28;20501;-74
2021/01/02 21:19:35;;;;;;;39.05;21.33;;;0.10;99.90;;;;;;5027682;28;20057;-74
2021/01/02 21:22:20;;;;;;;40.53;21.60;;;0.10;99.90;;;;;;5027425;28;20049;-75
2021/01/02 21:24:48;;;;;;;38.58;21.95;;;0.10;99.90;;;;;;5043166;28;20052;-74
2021/01/02 21:27:21;;;;;;;39.05;21.95;;;0.00;99.90;;;;;;5046240;28;20045;-75
2021/01/02 21:29:50;;;;;;;36.13;20.15;;;0.00;99.90;;;;;;5027036;28;20359;-74
2021/01/02 21:32:24;;;;;;;37.22;21.38;;;0.00;99.90;;;;;;5027824;28;20133;-74
2021/01/02 21:34:50;;;;;;;37.25;20.80;;;0.00;99.90;;;;;;5036371;28;20130;-74
2021/01/02 21:37:27;;;;;;;37.10;21.58;;;0.00;99.90;;;;;;5027986;28;20045;-75
2021/01/02 21:39:55;;;;;;;38.55;22.00;;;0.00;99.90;;;;;;5045456;28;20076;-74
2021/01/02 21:42:23;;;;;;;39.40;22.55;;;-0.10;99.90;;;;;;5027058;28;20076;-75
2021/01/02 21:45:09;;;;;;;39.05;21.95;;;0.00;99.90;;;;;;5029355;28;20052;-74
2021/01/02 21:47:43;;;;;;;39.05;22.58;;;-0.10;99.90;;;;;;5040823;28;20069;-74
2021/01/02 21:50:14;;;;;;;41.47;22.23;;;-0.10;99.90;;;;;;5026070;28;20072;-74
2021/01/02 21:52:41;;;;;;;40.20;22.48;;;-0.10;99.90;;;;;;5043141;28;20146;-74
2021/01/02 21:55:11;;;;;;;45.80;22.98;;;-0.10;99.90;;;;;;5045199;28;20052;-75
2021/01/02 21:57:37;;;;;;;40.72;22.42;;;-0.10;99.90;;;;;;5026609;28;20732;-75
2021/01/02 22:00:08;;;;;;;46.20;23.52;;;0.00;99.90;;;;;;5027904;28;20535;-75
2021/01/02 22:02:34;;;;;;;43.08;22.60;;;-0.10;99.90;;;;;;5044135;28;20049;-74
2021/01/02 22:05:11;;;;;;;43.28;23.42;;;-0.10;99.90;;;;;;5024113;28;20128;-75
2021/01/02 22:07:38;;;;;;;41.60;23.60;;;-0.10;99.90;;;;;;5041849;28;20049;-75
2021/01/02 22:10:10;;;;;;;41.28;22.83;;;-0.10;99.90;;;;;;5025740;28;20071;-75
2021/01/02 22:12:36;;;;;;;45.20;23.95;;;-0.10;99.90;;;;;;5016557;28;20064;-75
2021/01/02 22:15:05;;;;;;;44.38;24.38;;;-0.10;99.90;;;;;;5025390;28;20403;-75
2021/01/02 22:17:32;;;;;;;45.38;24.45;;;-0.10;99.90;;;;;;5023050;28;20049;-74
2021/01/02 22:19:58;;;;;;;47.53;25.00;;;-0.10;99.90;;;;;;5023572;28;20460;-74
2021/01/02 22:22:25;;;;;;;45.00;24.25;;;-0.10;99.90;;;;;;5016155;28;20563;-75
2021/01/02 22:24:52;;;;;;;44.13;25.98;;;-0.10;99.90;;;;;;5021423;28;20372;-75
2021/01/02 22:27:18;;;;;;;47.85;25.33;;;-0.10;99.90;;;;;;5024301;28;20125;-76
2021/01/02 22:29:46;;;;;;;43.67;24.33;;;-0.10;99.90;;;;;;5023586;28;20037;-74
2021/01/02 22:32:12;;;;;;;41.65;24.17;;;-0.10;99.90;;;;;;5022738;28;20388;-75
2021/01/02 22:34:39;;;;;;;46.17;25.45;;;-0.10;99.90;;;;;;5022546;28;20053;-74
2021/01/02 22:37:06;;;;;;;43.75;25.70;;;-0.10;99.90;;;;;;5023825;28;20045;-74
2021/01/02 22:39:32;;;;;;;44.35;25.70;;;-0.10;99.90;;;;;;5024488;28;20072;-76
2021/01/02 22:42:04;;;;;;;46.17;25.15;;;-0.10;99.90;;;;;;5023208;28;20129;-74
2021/01/02 22:44:31;;;;;;;37.93;22.70;;;-0.10;99.90;;;;;;5022780;28;20129;-74
2021/01/02 22:46:58;;;;;;;41.50;22.92;;;-0.10;99.90;;;;;;5022928;28;20049;-74
2021/01/02 22:49:26;;;;;;;41.60;22.23;;;-0.10;99.90;;;;;;5024699;28;20041;-75
2021/01/02 22:51:57;;;;;;;31.45;20.55;;;0.00;99.90;;;;;;5024922;28;20479;-75
2021/01/02 22:54:24;;;;;;;32.20;20.30;;;0.00;99.90;;;;;;5014003;28;20042;-75
2021/01/02 22:56:55;;;;;;;35.75;21.02;;;0.00;99.90;;;;;;5022532;28;20061;-75
2021/01/02 22:59:22;;;;;;;33.17;20.92;;;0.00;99.90;;;;;;5021692;28;20053;-75
2021/01/02 23:01:50;;;;;;;29.80;19.23;;;0.00;99.90;;;;;;5021916;28;20058;-75
2021/01/02 23:04:17;;;;;;;32.70;20.00;;;-0.10;99.90;;;;;;5009232;28;20577;-74
2021/01/02 23:06:43;;;;;;;30.80;20.25;;;0.00;99.90;;;;;;5022301;28;20111;-75
2021/01/02 23:09:10;;;;;;;30.27;19.67;;;-0.10;99.90;;;;;;5022902;28;20052;-74
2021/01/02 23:11:42;;;;;;;31.73;20.33;;;-0.10;99.90;;;;;;5027740;28;20053;-74
2021/01/02 23:14:11;;;;;;;31.17;19.08;;;-0.10;99.90;;;;;;5025460;28;20124;-75
2021/01/02 23:16:41;;;;;;;30.05;19.13;;;0.00;99.90;;;;;;5043242;28;20059;-75
2021/01/02 23:19:14;;;;;;;35.38;19.17;;;-0.10;99.90;;;;;;5046799;28;20506;-75
2021/01/02 23:21:40;;;;;;;31.15;20.48;;;0.00;99.90;;;;;;5047300;28;20482;-75
2021/01/02 23:24:08;;;;;;;33.85;19.00;;;-0.10;99.90;;;;;;5028593;28;20501;-74
2021/01/02 23:26:35;;;;;;;30.42;19.80;;;0.00;99.90;;;;;;5015899;28;20523;-75
2021/01/02 23:29:03;;;;;;;33.55;19.50;;;-0.10;99.90;;;;;;5028679;28;20577;-74
2021/01/02 23:31:35;;;;;;;31.90;19.50;;;-0.10;99.90;;;;;;5045908;28;20115;-74
2021/01/02 23:34:03;;;;;;;;;;;-0.10;99.90;;;;;;5046936;28;20049;-74